Time,TemperatureF,DewpointF,PressureIn,WindDirection,WindDirectionDegrees,WindSpeedMPH,WindSpeedGustMPH,Humidity,HourlyPrecipIn,Conditions,Clouds,dailyrainin,SoftwareType,DateUTC
2013-01-15 00:03:00,40.0,28.0,30.32,ENE,78,1.0,4.0,61,0.00,,,0.00,,2013-01-15 05:03:00,
2013-01-15 00:12:00,40.0,28.0,30.32,ENE,78,1.0,4.0,61,0.00,,,0.00,,2013-01-15 05:12:00,
2013-01-15 00:22:00,40.0,28.0,30.33,NE,52,1.0,6.0,62,0.00,,,0.00,,2013-01-15 05:22:00,
2013-01-15 00:33:00,40.0,28.0,30.33,NE,52,1.0,6.0,62,0.00,,,0.00,,2013-01-15 05:33:00,
2013-01-15 00:42:00,40.0,28.0,30.33,NE,52,1.0,6.0,62,0.00,,,0.00,,2013-01-15 05:42:00,
2013-01-15 00:53:00,40.0,28.0,30.33,East,100,0.0,3.0,62,0.00,,,0.00,,2013-01-15 05:53:00,
2013-01-15 01:02:00,40.0,28.0,30.33,East,100,0.0,3.0,62,0.00,,,0.00,,2013-01-15 06:02:00,
2013-01-15 01:12:00,40.0,28.0,30.33,East,100,0.0,3.0,62,0.00,,,0.00,,2013-01-15 06:12:00,
2013-01-15 01:22:00,40.0,29.0,30.34,East,81,0.0,2.0,64,0.00,,,0.00,,2013-01-15 06:22:00,
2013-01-15 01:33:00,40.0,29.0,30.34,East,81,0.0,2.0,64,0.00,,,0.00,,2013-01-15 06:33:00,
2013-01-15 01:43:00,40.0,29.0,30.34,East,81,0.0,2.0,64,0.00,,,0.00,,2013-01-15 06:43:00,
2013-01-15 01:53:00,39.0,28.0,30.34,East,86,1.0,3.0,64,0.00,,,0.00,,2013-01-15 06:53:00,
2013-01-15 02:02:00,39.0,28.0,30.34,East,86,1.0,3.0,64,0.00,,,0.00,,2013-01-15 07:02:00,
2013-01-15 02:12:00,39.0,28.0,30.34,East,86,1.0,3.0,64,0.00,,,0.00,,2013-01-15 07:12:00,
2013-01-15 02:22:00,39.0,28.0,30.35,East,82,0.0,2.0,64,0.00,,,0.00,,2013-01-15 07:22:00,
2013-01-15 02:33:00,39.0,28.0,30.35,East,82,0.0,2.0,64,0.00,,,0.00,,2013-01-15 07:33:00,
2013-01-15 02:43:00,39.0,28.0,30.35,East,82,0.0,2.0,64,0.00,,,0.00,,2013-01-15 07:43:00,
2013-01-15 02:53:00,38.0,27.0,30.34,East,84,0.0,1.0,64,0.00,,,0.00,,2013-01-15 07:53:00,
2013-01-15 03:02:00,38.0,27.0,30.34,East,84,0.0,1.0,64,0.00,,,0.00,,2013-01-15 08:02:00,
2013-01-15 03:12:00,38.0,27.0,30.34,East,84,0.0,1.0,64,0.00,,,0.00,,2013-01-15 08:12:00,
2013-01-15 03:22:00,38.0,28.0,30.33,East,84,0.0,0.0,66,0.00,,,0.00,,2013-01-15 08:22:00,
2013-01-15 03:33:00,38.0,28.0,30.33,East,84,0.0,0.0,66,0.00,,,0.00,,2013-01-15 08:33:00,
2013-01-15 03:43:00,38.0,28.0,30.33,East,84,0.0,0.0,66,0.00,,,0.00,,2013-01-15 08:43:00,
2013-01-15 03:53:00,38.0,28.0,30.32,East,84,0.0,0.0,66,0.00,,,0.00,,2013-01-15 08:53:00,
2013-01-15 04:02:00,38.0,28.0,30.32,East,84,0.0,0.0,66,0.00,,,0.00,,2013-01-15 09:02:00,
2013-01-15 04:12:00,38.0,28.0,30.32,East,84,0.0,0.0,66,0.00,,,0.00,,2013-01-15 09:12:00,
2013-01-15 04:22:00,37.0,27.0,30.32,East,84,0.0,0.0,68,0.00,,,0.00,,2013-01-15 09:22:00,
2013-01-15 04:33:00,37.0,27.0,30.32,East,84,0.0,0.0,68,0.00,,,0.00,,2013-01-15 09:33:00,
2013-01-15 04:43:00,37.0,27.0,30.32,East,84,0.0,0.0,68,0.00,,,0.00,,2013-01-15 09:43:00,
2013-01-15 04:52:00,37.0,27.0,30.31,East,84,0.0,1.0,68,0.00,,,0.00,,2013-01-15 09:52:00,
2013-01-15 05:02:00,37.0,27.0,30.31,East,84,0.0,1.0,68,0.00,,,0.00,,2013-01-15 10:02:00,
2013-01-15 05:12:00,37.0,27.0,30.31,East,84,0.0,1.0,68,0.00,,,0.00,,2013-01-15 10:12:00,
2013-01-15 05:22:00,37.0,27.0,30.31,East,84,0.0,1.0,68,0.00,,,0.00,,2013-01-15 10:22:00,
2013-01-15 05:32:00,37.0,27.0,30.31,East,84,0.0,1.0,68,0.00,,,0.00,,2013-01-15 10:32:00,
2013-01-15 05:42:00,37.0,27.0,30.31,East,84,0.0,1.0,68,0.00,,,0.00,,2013-01-15 10:42:00,
2013-01-15 05:52:00,36.0,27.0,30.32,East,84,0.0,2.0,69,0.00,,,0.00,,2013-01-15 10:52:00,
2013-01-15 06:02:00,36.0,27.0,30.32,East,84,0.0,2.0,69,0.00,,,0.00,,2013-01-15 11:02:00,
2013-01-15 06:12:00,36.0,27.0,30.32,East,84,0.0,2.0,69,0.00,,,0.00,,2013-01-15 11:12:00,
2013-01-15 06:23:00,34.0,26.0,30.31,East,84,0.0,0.0,73,0.00,,,0.00,,2013-01-15 11:23:00,
2013-01-15 06:33:00,34.0,26.0,30.31,East,84,0.0,0.0,73,0.00,,,0.00,,2013-01-15 11:33:00,
2013-01-15 06:43:00,34.0,26.0,30.31,East,84,0.0,0.0,73,0.00,,,0.00,,2013-01-15 11:43:00,
2013-01-15 06:53:00,32.0,26.0,30.34,ENE,70,0.0,3.0,77,0.00,,,0.00,,2013-01-15 11:53:00,
2013-01-15 07:03:00,32.0,26.0,30.34,ENE,70,0.0,3.0,77,0.00,,,0.00,,2013-01-15 12:03:00,
2013-01-15 07:12:00,32.0,26.0,30.34,ENE,70,0.0,3.0,77,0.00,,,0.00,,2013-01-15 12:12:00,
2013-01-15 07:23:00,33.0,26.0,30.36,ENE,70,0.0,2.0,75,0.00,,,0.00,,2013-01-15 12:23:00,
2013-01-15 07:33:00,33.0,26.0,30.36,ENE,70,0.0,2.0,75,0.00,,,0.00,,2013-01-15 12:33:00,
2013-01-15 07:43:00,33.0,26.0,30.36,ENE,70,0.0,2.0,75,0.00,,,0.00,,2013-01-15 12:43:00,
2013-01-15 07:53:00,31.0,25.0,30.37,ENE,70,0.0,0.0,78,0.00,,,0.00,,2013-01-15 12:53:00,
2013-01-15 08:03:00,31.0,25.0,30.37,ENE,70,0.0,0.0,78,0.00,,,0.00,,2013-01-15 13:03:00,
2013-01-15 08:12:00,31.0,25.0,30.37,ENE,70,0.0,0.0,78,0.00,,,0.00,,2013-01-15 13:12:00,
2013-01-15 08:23:00,30.0,25.0,30.38,ENE,70,0.0,0.0,81,0.00,,,0.00,,2013-01-15 13:23:00,
2013-01-15 08:33:00,30.0,25.0,30.38,ENE,70,0.0,0.0,81,0.00,,,0.00,,2013-01-15 13:33:00,
2013-01-15 08:43:00,30.0,25.0,30.38,ENE,70,0.0,0.0,81,0.00,,,0.00,,2013-01-15 13:43:00,
2013-01-15 08:53:00,32.0,27.0,30.39,ENE,72,1.0,2.0,82,0.00,,,0.00,,2013-01-15 13:53:00,
2013-01-15 09:03:00,32.0,27.0,30.39,ENE,72,1.0,2.0,82,0.00,,,0.00,,2013-01-15 14:03:00,
2013-01-15 09:13:00,32.0,27.0,30.39,ENE,72,1.0,2.0,82,0.00,,,0.00,,2013-01-15 14:13:00,
2013-01-15 09:23:00,35.0,27.0,30.38,SE,126,2.0,5.0,73,0.00,,,0.00,,2013-01-15 14:23:00,
2013-01-15 09:33:00,35.0,27.0,30.38,SE,126,2.0,5.0,73,0.00,,,0.00,,2013-01-15 14:33:00,
2013-01-15 09:43:00,35.0,27.0,30.38,SE,126,2.0,5.0,73,0.00,,,0.00,,2013-01-15 14:43:00,
2013-01-15 09:54:00,37.0,27.0,30.39,ENE,72,4.0,7.0,68,0.00,,,0.00,,2013-01-15 14:54:00,
2013-01-15 10:03:00,37.0,27.0,30.39,ENE,72,4.0,7.0,68,0.00,,,0.00,,2013-01-15 15:03:00,
2013-01-15 10:13:00,37.0,27.0,30.39,ENE,72,4.0,7.0,68,0.00,,,0.00,,2013-01-15 15:13:00,
2013-01-15 10:23:00,38.0,27.0,30.39,ESE,122,3.0,6.0,64,0.00,,,0.00,,2013-01-15 15:23:00,
2013-01-15 10:33:00,38.0,27.0,30.39,ESE,122,3.0,6.0,64,0.00,,,0.00,,2013-01-15 15:33:00,
2013-01-15 10:43:00,38.0,27.0,30.39,ESE,122,3.0,6.0,64,0.00,,,0.00,,2013-01-15 15:43:00,
2013-01-15 10:53:00,39.0,26.0,30.40,East,96,3.0,7.0,60,0.00,,,0.00,,2013-01-15 15:53:00,
2013-01-15 11:03:00,39.0,26.0,30.40,East,96,3.0,7.0,60,0.00,,,0.00,,2013-01-15 16:03:00,
2013-01-15 11:12:00,39.0,26.0,30.40,East,96,3.0,7.0,60,0.00,,,0.00,,2013-01-15 16:12:00,
2013-01-15 11:23:00,40.0,26.0,30.37,ESE,121,4.0,7.0,57,0.00,,,0.00,,2013-01-15 16:23:00,
2013-01-15 11:33:00,40.0,26.0,30.37,ESE,121,4.0,7.0,57,0.00,,,0.00,,2013-01-15 16:33:00,
2013-01-15 11:43:00,40.0,26.0,30.37,ESE,121,4.0,7.0,57,0.00,,,0.00,,2013-01-15 16:43:00,
2013-01-15 11:53:00,40.0,26.0,30.36,East,101,3.0,5.0,58,0.00,,,0.00,,2013-01-15 16:53:00,
2013-01-15 12:03:00,40.0,26.0,30.36,East,101,3.0,5.0,58,0.00,,,0.00,,2013-01-15 17:03:00,
2013-01-15 12:13:00,40.0,26.0,30.36,East,101,3.0,5.0,58,0.00,,,0.00,,2013-01-15 17:13:00,
2013-01-15 12:23:00,40.0,26.0,30.35,ESE,116,1.0,7.0,57,0.00,,,0.00,,2013-01-15 17:23:00,
2013-01-15 12:33:00,40.0,26.0,30.35,ESE,116,1.0,7.0,57,0.00,,,0.00,,2013-01-15 17:33:00,
2013-01-15 12:43:00,40.0,26.0,30.35,ESE,116,1.0,7.0,57,0.00,,,0.00,,2013-01-15 17:43:00,
2013-01-15 12:53:00,41.0,26.0,30.34,ESE,103,1.0,6.0,55,0.00,,,0.00,,2013-01-15 17:53:00,
2013-01-15 13:03:00,41.0,26.0,30.34,ESE,103,1.0,6.0,55,0.00,,,0.00,,2013-01-15 18:03:00,
2013-01-15 13:13:00,41.0,26.0,30.34,ESE,103,1.0,6.0,55,0.00,,,0.00,,2013-01-15 18:13:00,
2013-01-15 13:23:00,41.0,26.0,30.34,ENE,70,2.0,4.0,55,0.00,,,0.00,,2013-01-15 18:23:00,
2013-01-15 13:33:00,41.0,26.0,30.34,ENE,70,2.0,4.0,55,0.00,,,0.00,,2013-01-15 18:33:00,
2013-01-15 13:43:00,41.0,26.0,30.34,ENE,70,2.0,4.0,55,0.00,,,0.00,,2013-01-15 18:43:00,
2013-01-15 13:54:00,41.0,26.0,30.34,ESE,111,1.0,3.0,55,0.00,,,0.00,,2013-01-15 18:54:00,
2013-01-15 14:03:00,41.0,26.0,30.34,ESE,111,1.0,3.0,55,0.00,,,0.00,,2013-01-15 19:03:00,
2013-01-15 14:13:00,41.0,26.0,30.34,ESE,111,1.0,3.0,55,0.00,,,0.00,,2013-01-15 19:13:00,
2013-01-15 14:23:00,41.0,26.0,30.33,NNE,32,0.0,4.0,55,0.00,,,0.00,,2013-01-15 19:23:00,
2013-01-15 14:33:00,41.0,26.0,30.33,NNE,32,0.0,4.0,55,0.00,,,0.00,,2013-01-15 19:33:00,
2013-01-15 14:43:00,41.0,26.0,30.33,NNE,32,0.0,4.0,55,0.00,,,0.00,,2013-01-15 19:43:00,
2013-01-15 14:53:00,42.0,26.0,30.34,NNE,32,0.0,2.0,53,0.00,,,0.00,,2013-01-15 19:53:00,
2013-01-15 15:03:00,42.0,26.0,30.34,NNE,32,0.0,2.0,53,0.00,,,0.00,,2013-01-15 20:03:00,
2013-01-15 15:12:00,42.0,26.0,30.34,NNE,32,0.0,2.0,53,0.00,,,0.00,,2013-01-15 20:12:00,
2013-01-15 15:23:00,41.0,26.0,30.33,NE,49,0.0,2.0,54,0.00,,,0.00,,2013-01-15 20:23:00,
2013-01-15 15:33:00,41.0,26.0,30.33,NE,49,0.0,2.0,54,0.00,,,0.00,,2013-01-15 20:33:00,
2013-01-15 15:44:00,41.0,26.0,30.33,NE,49,0.0,2.0,54,0.00,,,0.00,,2013-01-15 20:44:00,
2013-01-15 15:53:00,41.0,27.0,30.32,ESE,105,0.0,2.0,56,0.00,,,0.00,,2013-01-15 20:53:00,
2013-01-15 16:03:00,41.0,27.0,30.32,ESE,105,0.0,2.0,56,0.00,,,0.00,,2013-01-15 21:03:00,
2013-01-15 16:13:00,41.0,27.0,30.32,ESE,105,0.0,2.0,56,0.00,,,0.00,,2013-01-15 21:13:00,
2013-01-15 16:23:00,40.0,26.0,30.32,ESE,103,0.0,2.0,57,0.00,,,0.00,,2013-01-15 21:23:00,
2013-01-15 16:33:00,40.0,26.0,30.32,ESE,103,0.0,2.0,57,0.00,,,0.00,,2013-01-15 21:33:00,
2013-01-15 16:43:00,40.0,26.0,30.32,ESE,103,0.0,2.0,57,0.00,,,0.00,,2013-01-15 21:43:00,
2013-01-15 16:53:00,39.0,25.0,30.33,ESE,103,0.0,2.0,58,0.00,,,0.00,,2013-01-15 21:53:00,
2013-01-15 17:03:00,39.0,25.0,30.33,ESE,103,0.0,2.0,58,0.00,,,0.00,,2013-01-15 22:03:00,
2013-01-15 17:12:00,39.0,25.0,30.33,ESE,103,0.0,2.0,58,0.00,,,0.00,,2013-01-15 22:12:00,
2013-01-15 17:23:00,38.0,25.0,30.34,ESE,103,0.0,1.0,60,0.00,,,0.00,,2013-01-15 22:23:00,
2013-01-15 17:33:00,38.0,25.0,30.34,ESE,103,0.0,1.0,60,0.00,,,0.00,,2013-01-15 22:33:00,
2013-01-15 17:43:00,38.0,25.0,30.34,ESE,103,0.0,1.0,60,0.00,,,0.00,,2013-01-15 22:43:00,
2013-01-15 17:53:00,37.0,25.0,30.35,ESE,103,0.0,0.0,61,0.00,,,0.00,,2013-01-15 22:53:00,
2013-01-15 18:03:00,37.0,25.0,30.35,ESE,103,0.0,0.0,61,0.00,,,0.00,,2013-01-15 23:03:00,
2013-01-15 18:13:00,37.0,25.0,30.35,ESE,103,0.0,0.0,61,0.00,,,0.00,,2013-01-15 23:13:00,
2013-01-15 18:23:00,37.0,26.0,30.35,ESE,103,0.0,2.0,63,0.00,,,0.00,,2013-01-15 23:23:00,
2013-01-15 18:33:00,37.0,26.0,30.35,ESE,103,0.0,2.0,63,0.00,,,0.00,,2013-01-15 23:33:00,
2013-01-15 18:43:00,37.0,26.0,30.35,ESE,103,0.0,2.0,63,0.00,,,0.00,,2013-01-15 23:43:00,
2013-01-15 18:53:00,35.0,25.0,30.36,ESE,103,0.0,0.0,66,0.00,,,0.00,,2013-01-15 23:53:00,
2013-01-15 19:03:00,35.0,25.0,30.36,ESE,103,0.0,0.0,66,0.00,,,0.00,,2013-01-16 00:03:00,
2013-01-15 19:13:00,35.0,25.0,30.36,ESE,103,0.0,0.0,66,0.00,,,0.00,,2013-01-16 00:13:00,
2013-01-15 19:22:00,34.0,25.0,30.36,ESE,103,0.0,0.0,69,0.00,,,0.00,,2013-01-16 00:22:00,
2013-01-15 19:33:00,34.0,25.0,30.36,ESE,103,0.0,0.0,69,0.00,,,0.00,,2013-01-16 00:33:00,
2013-01-15 19:43:00,34.0,25.0,30.36,ESE,103,0.0,0.0,69,0.00,,,0.00,,2013-01-16 00:43:00,
2013-01-15 19:53:00,33.0,25.0,30.35,ESE,103,0.0,0.0,73,0.00,,,0.00,,2013-01-16 00:53:00,
2013-01-15 20:03:00,33.0,25.0,30.35,ESE,103,0.0,0.0,73,0.00,,,0.00,,2013-01-16 01:03:00,
2013-01-15 20:12:00,33.0,25.0,30.35,ESE,103,0.0,0.0,73,0.00,,,0.00,,2013-01-16 01:12:00,
2013-01-15 20:22:00,32.0,25.0,30.35,ESE,103,0.0,0.0,76,0.00,,,0.00,,2013-01-16 01:22:00,
2013-01-15 20:33:00,32.0,25.0,30.35,ESE,103,0.0,0.0,76,0.00,,,0.00,,2013-01-16 01:33:00,
2013-01-15 20:43:00,32.0,25.0,30.35,ESE,103,0.0,0.0,76,0.00,,,0.00,,2013-01-16 01:43:00,
2013-01-15 20:53:00,32.0,25.0,30.35,ESE,103,0.0,0.0,76,0.00,,,0.00,,2013-01-16 01:53:00,